X  Cerrar Datos meteorológicos de aviación METAR     LEST Santiago-Rosalía de Castro Airport
Temperatura
16°C Temperatura
12°C Punto de rocío
77% Humedad



Viento
13 KM/H
8 MPH
4 M/S
7 NUDO



40°
NE
Condiciones actuales

Mayormente nublado Mayormente nublado
Presión 1021 (hPa) - 30.15 (inHg)
Visibilidad 6 (milla) - 9.7 (km)
Aeropuerto
Código de aeropuerto LEST

localidad: Santiago-Rosalía de Castro Airport
Distancia: 66 (km)

Metar:
LEST 210830Z 04007KT 350V080 9999 BKN028 16/12 Q1021 NOSIG

Hora: 21-07-2024 08:30 CEST